Arthur, Iowa
Current Conditions -  °F | °C
As of 8:15 AM on Tuesday 27 Jan 2015 (Local Time) from KSLB Reporting Station
Moderate Fog Moderate Fog  
Wind Chill: 28°   Ceiling: Unl
Heat Index: 28°   Visibility: 0mi
Dew Point: 28°   Wind: 0mph
Humidity: 100%   Direction: NA
Pressure: 30.13"   Gusts: NA
Location:  42.33°N, 95.35°W
Report Text: KSLB 271415Z AUTO 00000KT M1/4SM FZFG VV000 M02/M02 A3013 RMK AO2
Loading
Personal Weather Stations






























Interactive Weather Map New forecast layout! Learn more

10-Day Weather Forecast

Advertisements
Track Severe Weather on mobile